createdAt,value
2016-08-20T00:00:04.224Z,17.7
2016-08-20T00:01:04.890Z,17.72
2016-08-20T00:02:05.565Z,17.62
2016-08-20T00:03:04.827Z,17.66
2016-08-20T00:04:05.500Z,17.66
2016-08-20T00:05:05.463Z,17.7
2016-08-20T00:06:04.734Z,17.75
2016-08-20T00:07:05.398Z,17.74
2016-08-20T00:08:04.671Z,17.74
2016-08-20T00:09:04.645Z,17.74
2016-08-20T00:10:05.310Z,17.79
2016-08-20T00:11:04.593Z,17.86
2016-08-20T00:12:05.247Z,17.78
2016-08-20T00:13:05.209Z,17.84
2016-08-20T00:14:03.804Z,17.84
2016-08-20T00:15:05.152Z,17.79
2016-08-20T00:16:05.119Z,17.86
2016-08-20T00:17:05.092Z,17.84
2016-08-20T00:18:05.061Z,17.86
2016-08-20T00:19:05.031Z,17.84
2016-08-20T00:20:04.304Z,17.79
2016-08-20T00:21:04.972Z,17.9
2016-08-20T00:22:04.987Z,17.84
2016-08-20T00:23:04.211Z,17.82
2016-08-20T00:24:04.891Z,17.89
2016-08-20T00:25:04.848Z,17.86
2016-08-20T00:26:03.418Z,17.82
2016-08-20T00:27:04.791Z,17.87
2016-08-20T00:28:04.752Z,17.86
2016-08-20T00:29:04.724Z,17.92
2016-08-20T00:30:04.695Z,17.89
2016-08-20T00:31:03.960Z,17.95
2016-08-20T00:32:03.936Z,17.95
2016-08-20T00:33:04.600Z,17.95
2016-08-20T00:34:04.571Z,17.99
2016-08-20T00:35:04.538Z,17.99
2016-08-20T00:36:04.500Z,17.96
2016-08-20T00:37:04.479Z,17.95
2016-08-20T00:38:03.049Z,17.96
2016-08-20T00:39:03.715Z,17.92
2016-08-20T00:40:04.381Z,17.96
2016-08-20T00:41:03.651Z,17.92
2016-08-20T00:42:03.623Z,17.95
2016-08-20T00:43:04.292Z,17.97
2016-08-20T00:44:03.565Z,18
2016-08-20T00:45:04.226Z,17.97
2016-08-20T00:46:03.502Z,18.02
2016-08-20T00:47:02.775Z,17.99
2016-08-20T00:48:04.138Z,17.89
2016-08-20T00:49:04.104Z,18
2016-08-20T00:50:03.377Z,17.97
2016-08-20T00:51:03.344Z,17.97
2016-08-20T00:52:03.316Z,17.96
2016-08-20T00:53:03.981Z,17.95
2016-08-20T00:54:02.557Z,17.95
2016-08-20T00:55:03.918Z,17.9
2016-08-20T00:56:03.891Z,17.99
2016-08-20T00:57:03.185Z,17.99
2016-08-20T00:58:03.825Z,17.95
2016-08-20T00:59:03.800Z,18
2016-08-20T01:00:03.768Z,17.99
2016-08-20T01:01:03.035Z,17.97
2016-08-20T01:02:03.702Z,17.96
2016-08-20T01:03:03.672Z,17.97
2016-08-20T01:04:03.643Z,17.97
2016-08-20T01:05:03.613Z,17.92
2016-08-20T01:06:03.586Z,17.97
2016-08-20T01:07:03.550Z,17.96
2016-08-20T01:08:03.523Z,18.05
2016-08-20T01:09:02.806Z,17.95
2016-08-20T01:10:03.459Z,17.96
2016-08-20T01:11:03.431Z,17.95
2016-08-20T01:12:02.708Z,17.9
2016-08-20T01:13:03.368Z,18
2016-08-20T01:14:02.638Z,18
2016-08-20T01:15:03.308Z,17.97
2016-08-20T01:16:02.574Z,17.95
2016-08-20T01:17:02.548Z,17.95
2016-08-20T01:18:03.210Z,17.95
2016-08-20T01:19:02.486Z,17.96
2016-08-20T01:20:02.455Z,17.95
2016-08-20T01:21:03.115Z,17.93
2016-08-20T01:22:03.096Z,18.03
2016-08-20T01:23:03.057Z,17.96
2016-08-20T01:24:01.633Z,18.05
2016-08-20T01:25:02.997Z,17.97
2016-08-20T01:26:02.963Z,17.97
2016-08-20T01:27:02.238Z,17.99
2016-08-20T01:28:02.906Z,17.96
2016-08-20T01:29:02.876Z,18.03
2016-08-20T01:30:02.149Z,17.95
2016-08-20T01:31:02.122Z,17.97
2016-08-20T01:32:02.782Z,17.9
2016-08-20T01:33:02.068Z,17.97
2016-08-20T01:34:02.720Z,17.97
2016-08-20T01:35:02.689Z,17.96
2016-08-20T01:36:02.657Z,17.97
2016-08-20T01:37:02.629Z,18
2016-08-20T01:38:02.596Z,17.97
2016-08-20T01:39:02.564Z,17.99
2016-08-20T01:40:02.539Z,18
2016-08-20T01:41:01.815Z,17.95
2016-08-20T01:42:01.782Z,17.99
2016-08-20T01:43:02.449Z,17.93
2016-08-20T01:44:01.726Z,18
2016-08-20T01:45:02.384Z,17.93
2016-08-20T01:46:01.652Z,18.02
2016-08-20T01:47:02.323Z,18.03
2016-08-20T01:48:01.600Z,17.93
2016-08-20T01:49:01.568Z,17.96
2016-08-20T01:50:02.232Z,17.97
2016-08-20T01:51:01.498Z,17.99
2016-08-20T01:52:02.171Z,17.96
2016-08-20T01:53:02.136Z,17.92
2016-08-20T01:54:01.406Z,17.95
2016-08-20T01:55:01.378Z,17.95
2016-08-20T01:56:01.348Z,17.99
2016-08-20T01:57:02.016Z,17.96
2016-08-20T01:58:01.291Z,17.95
2016-08-20T01:59:01.950Z,17.95
2016-08-20T02:00:01.225Z,17.97
2016-08-20T02:01:01.201Z,17.89
2016-08-20T02:02:01.866Z,17.97
2016-08-20T02:03:01.130Z,17.96
2016-08-20T02:04:01.102Z,17.9
2016-08-20T02:05:01.764Z,17.96
2016-08-20T02:06:01.044Z,17.93
2016-08-20T02:07:01.707Z,17.99
2016-08-20T02:08:00.284Z,17.9
2016-08-20T02:09:00.952Z,17.95
2016-08-20T02:10:01.616Z,17.9
2016-08-20T02:11:01.581Z,17.93
2016-08-20T02:12:01.553Z,17.95
2016-08-20T02:13:00.827Z,17.95
2016-08-20T02:14:00.098Z,17.92
2016-08-20T02:15:00.768Z,17.82
2016-08-20T02:16:00.734Z,17.92
2016-08-20T02:17:01.397Z,17.92
2016-08-20T02:18:00.675Z,17.92
2016-08-20T02:18:59.946Z,17.87
2016-08-20T02:20:01.310Z,17.81
2016-08-20T02:21:00.580Z,17.86
2016-08-20T02:22:01.246Z,17.81
2016-08-20T02:23:01.214Z,17.81
2016-08-20T02:24:00.488Z,17.75
2016-08-20T02:25:00.455Z,17.81
2016-08-20T02:26:01.126Z,17.77
2016-08-20T02:27:01.092Z,17.78
2016-08-20T02:28:01.057Z,17.72
2016-08-20T02:29:00.336Z,17.74
2016-08-20T02:30:01.003Z,17.72
2016-08-20T02:31:00.977Z,17.75
2016-08-20T02:32:00.949Z,17.74
2016-08-20T02:33:00.913Z,17.74
2016-08-20T02:34:00.176Z,17.71
2016-08-20T02:35:00.848Z,17.74
2016-08-20T02:36:00.117Z,17.78
2016-08-20T02:37:00.798Z,17.68
2016-08-20T02:38:00.054Z,17.78
2016-08-20T02:39:00.023Z,17.79
2016-08-20T02:40:00.704Z,17.84
2016-08-20T02:40:59.963Z,17.77
2016-08-20T02:41:59.934Z,17.78
2016-08-20T02:43:00.601Z,17.78
2016-08-20T02:44:00.578Z,17.79
2016-08-20T02:44:59.849Z,17.86
2016-08-20T02:46:00.512Z,17.81
2016-08-20T02:47:00.476Z,17.74
2016-08-20T02:47:59.746Z,17.77
2016-08-20T02:49:00.436Z,17.75
2016-08-20T02:49:58.994Z,17.7
2016-08-20T02:50:59.656Z,17.74
2016-08-20T02:51:59.626Z,17.7
2016-08-20T02:53:00.288Z,17.71
2016-08-20T02:54:00.259Z,17.72
2016-08-20T02:55:00.230Z,17.68
2016-08-20T02:56:00.194Z,17.7
2016-08-20T02:56:58.771Z,17.66
2016-08-20T02:58:00.134Z,17.58
2016-08-20T02:59:00.106Z,17.66
2016-08-20T02:59:59.374Z,17.72
2016-08-20T03:00:59.357Z,17.7
2016-08-20T03:02:00.024Z,17.66
2016-08-20T03:02:59.975Z,17.64
2016-08-20T03:03:59.949Z,17.68
2016-08-20T03:04:59.923Z,17.66
2016-08-20T03:05:59.188Z,17.66
2016-08-20T03:06:59.170Z,17.72
2016-08-20T03:07:59.840Z,17.64
2016-08-20T03:08:59.098Z,17.59
2016-08-20T03:09:59.072Z,17.7
2016-08-20T03:10:59.728Z,17.68
2016-08-20T03:11:59.705Z,17.71
2016-08-20T03:12:58.972Z,17.72
2016-08-20T03:13:58.945Z,17.75
2016-08-20T03:14:58.924Z,17.68
2016-08-20T03:15:59.573Z,17.75
2016-08-20T03:16:59.550Z,17.74
2016-08-20T03:17:59.522Z,17.74
2016-08-20T03:18:59.493Z,17.75
2016-08-20T03:19:59.458Z,17.77
2016-08-20T03:20:58.726Z,17.74
2016-08-20T03:21:58.716Z,17.75
2016-08-20T03:22:57.967Z,17.77
2016-08-20T03:23:58.643Z,17.71
2016-08-20T03:24:59.309Z,17.72
2016-08-20T03:25:58.570Z,17.66
2016-08-20T03:26:58.546Z,17.66
2016-08-20T03:27:58.513Z,17.68
2016-08-20T03:28:58.483Z,17.71
2016-08-20T03:29:59.146Z,17.72
2016-08-20T03:30:59.114Z,17.74
2016-08-20T03:31:59.084Z,17.71
2016-08-20T03:32:57.658Z,17.66
2016-08-20T03:33:59.023Z,17.7
2016-08-20T03:34:58.294Z,17.68
2016-08-20T03:35:58.955Z,17.7
2016-08-20T03:36:58.928Z,17.68
2016-08-20T03:37:58.203Z,17.71
2016-08-20T03:38:58.866Z,17.68
2016-08-20T03:39:58.838Z,17.74
2016-08-20T03:40:58.813Z,17.68
2016-08-20T03:41:58.079Z,17.71
2016-08-20T03:42:57.353Z,17.7
2016-08-20T03:43:58.022Z,17.68
2016-08-20T03:44:57.289Z,17.75
2016-08-20T03:45:58.645Z,17.71
2016-08-20T03:46:57.924Z,17.72
2016-08-20T03:47:58.586Z,17.72
2016-08-20T03:48:57.861Z,17.68
2016-08-20T03:49:58.531Z,17.78
2016-08-20T03:50:57.796Z,17.75
2016-08-20T03:51:57.770Z,17.72
2016-08-20T03:52:57.737Z,17.66
2016-08-20T03:53:57.708Z,17.68
2016-08-20T03:54:57.675Z,17.62
2016-08-20T03:55:57.645Z,17.62
2016-08-20T03:56:57.613Z,17.56
2016-08-20T03:57:58.278Z,17.55
2016-08-20T03:58:57.547Z,17.58
2016-08-20T03:59:57.526Z,17.55
2016-08-20T04:00:57.486Z,17.52
2016-08-20T04:01:58.166Z,17.44
2016-08-20T04:03:12.330Z,17.49
2016-08-20T04:03:57.398Z,17.41
2016-08-20T04:04:58.063Z,17.43
2016-08-20T04:05:57.342Z,17.44
2016-08-20T04:06:58.006Z,17.41
2016-08-20T04:07:57.270Z,17.41
2016-08-20T04:08:57.254Z,17.41
2016-08-20T04:09:57.216Z,17.4
2016-08-20T04:10:56.481Z,17.4
2016-08-20T04:11:57.148Z,17.46
2016-08-20T04:12:57.817Z,17.43
2016-08-20T04:13:57.784Z,17.44
2016-08-20T04:14:57.750Z,17.46
2016-08-20T04:15:57.020Z,17.38
2016-08-20T04:16:56.998Z,17.38
2016-08-20T04:17:57.657Z,17.48
2016-08-20T04:18:57.626Z,17.44
2016-08-20T04:19:57.590Z,17.4
2016-08-20T04:20:57.565Z,17.41
2016-08-20T04:21:57.542Z,17.48
2016-08-20T04:22:57.500Z,17.43
2016-08-20T04:23:57.472Z,17.48
2016-08-20T04:24:56.744Z,17.41
2016-08-20T04:25:56.711Z,17.43
2016-08-20T04:26:56.680Z,17.4
2016-08-20T04:27:57.340Z,17.34
2016-08-20T04:28:56.621Z,17.46
2016-08-20T04:29:57.289Z,17.36
2016-08-20T04:30:56.554Z,17.41
2016-08-20T04:31:56.528Z,17.36
2016-08-20T04:32:56.493Z,17.34
2016-08-20T04:33:56.462Z,17.43
2016-08-20T04:34:56.434Z,17.44
2016-08-20T04:35:56.398Z,17.38
2016-08-20T04:36:57.063Z,17.44
2016-08-20T04:37:56.335Z,17.44
2016-08-20T04:38:56.305Z,17.49
2016-08-20T04:39:56.978Z,17.49
2016-08-20T04:40:56.946Z,17.4
2016-08-20T04:41:56.909Z,17.38
2016-08-20T04:42:56.874Z,17.46
2016-08-20T04:43:56.155Z,17.49
2016-08-20T04:44:56.119Z,17.48
2016-08-20T04:45:56.092Z,17.4
2016-08-20T04:46:56.748Z,17.54
2016-08-20T04:47:56.023Z,17.44
2016-08-20T04:48:56.691Z,17.44
2016-08-20T04:49:55.964Z,17.51
2016-08-20T04:50:55.936Z,17.52
2016-08-20T04:51:55.896Z,17.49
2016-08-20T04:52:56.566Z,17.58
2016-08-20T04:53:55.837Z,17.54
2016-08-20T04:54:56.507Z,17.58
2016-08-20T04:55:56.474Z,17.66
2016-08-20T04:56:56.441Z,17.71
2016-08-20T04:57:55.722Z,17.63
2016-08-20T04:58:54.989Z,17.72
2016-08-20T04:59:55.650Z,17.78
2016-08-20T05:00:55.631Z,17.82
2016-08-20T05:01:55.590Z,17.77
2016-08-20T05:02:55.558Z,17.78
2016-08-20T05:03:56.228Z,17.82
2016-08-20T05:04:56.194Z,17.86
2016-08-20T05:05:55.466Z,17.87
2016-08-20T05:06:55.450Z,17.82
2016-08-20T05:07:56.102Z,17.87
2016-08-20T05:08:56.075Z,17.82
2016-08-20T05:09:55.353Z,17.84
2016-08-20T05:10:55.306Z,17.95
2016-08-20T05:11:55.980Z,17.87
2016-08-20T05:12:55.951Z,17.87
2016-08-20T05:13:55.913Z,17.79
2016-08-20T05:14:55.886Z,17.79
2016-08-20T05:15:55.160Z,17.82
2016-08-20T05:16:55.133Z,17.77
2016-08-20T05:17:55.097Z,17.82
2016-08-20T05:18:55.062Z,17.75
2016-08-20T05:19:55.037Z,17.82
2016-08-20T05:20:55.016Z,18.14
2016-08-20T05:21:55.677Z,18.44
2016-08-20T05:22:55.641Z,18.67
2016-08-20T05:23:55.617Z,18.78
2016-08-20T05:24:54.883Z,18.84
2016-08-20T05:25:55.552Z,18.75
2016-08-20T05:26:55.516Z,18.88
2016-08-20T05:27:54.100Z,18.99
2016-08-20T05:28:54.759Z,19.41
2016-08-20T05:29:55.424Z,19.84
2016-08-20T05:30:54.704Z,19.94
2016-08-20T05:31:54.670Z,20.02
2016-08-20T05:32:54.642Z,20.26
2016-08-20T05:33:55.312Z,20.55
2016-08-20T05:34:55.273Z,20.88
2016-08-20T05:35:54.560Z,21.01
2016-08-20T05:36:54.518Z,20.99
2016-08-20T05:37:55.185Z,20.97
2016-08-20T05:38:53.767Z,20.92
2016-08-20T05:39:55.130Z,20.72
2016-08-20T05:40:55.111Z,20.59
2016-08-20T05:41:54.378Z,20.54
2016-08-20T05:42:55.051Z,20.41
2016-08-20T05:43:55.014Z,20.28
2016-08-20T05:44:54.984Z,20.32
2016-08-20T05:45:54.259Z,20.33
2016-08-20T05:46:54.231Z,20.5
2016-08-20T05:47:54.201Z,20.69
2016-08-20T05:48:54.865Z,20.95
2016-08-20T05:49:54.843Z,21.1
2016-08-20T05:50:54.810Z,21.28
2016-08-20T05:51:54.091Z,21.56
2016-08-20T05:52:54.756Z,21.8
2016-08-20T05:53:54.725Z,21.98
2016-08-20T05:54:54.004Z,22.12
2016-08-20T05:55:54.668Z,22.57
2016-08-20T05:56:53.945Z,22.86
2016-08-20T05:57:54.616Z,23.28
2016-08-20T05:58:53.892Z,23.53
2016-08-20T05:59:54.557Z,23.46
2016-08-20T06:00:53.835Z,23.2
2016-08-20T06:01:53.806Z,22.91
2016-08-20T06:02:53.795Z,22.72
2016-08-20T06:03:54.453Z,22.43
2016-08-20T06:04:54.418Z,22.25
2016-08-20T06:05:54.392Z,22.07
2016-08-20T06:06:53.668Z,21.99
2016-08-20T06:07:54.350Z,21.72
2016-08-20T06:08:53.629Z,21.56
2016-08-20T06:09:54.288Z,21.96
2016-08-20T06:10:54.258Z,22.43
2016-08-20T06:11:53.804Z,22.92
2016-08-20T06:12:53.503Z,23.58
2016-08-20T06:13:54.176Z,24.03
2016-08-20T06:14:53.451Z,24.47
2016-08-20T06:15:53.422Z,24.99
2016-08-20T06:16:54.092Z,25.45
2016-08-20T06:17:54.069Z,25.73
2016-08-20T06:18:54.038Z,26.01
2016-08-20T06:19:54.013Z,26.3
2016-08-20T06:20:53.999Z,26.52
2016-08-20T06:21:53.269Z,26.82
2016-08-20T06:22:53.940Z,27.06
2016-08-20T06:23:53.909Z,27.22
2016-08-20T06:24:53.192Z,27.29
2016-08-20T06:25:53.863Z,27.32
2016-08-20T06:26:53.834Z,27.32
2016-08-20T06:27:53.818Z,27.17
2016-08-20T06:28:53.094Z,27.29
2016-08-20T06:29:53.069Z,27.34
2016-08-20T06:30:53.741Z,27.34
2016-08-20T06:31:53.723Z,27.62
2016-08-20T06:32:53.706Z,27.6
2016-08-20T06:33:53.672Z,27.84
2016-08-20T06:34:52.948Z,27.7
2016-08-20T06:35:53.626Z,27.66
2016-08-20T06:36:52.905Z,27.74
2016-08-20T06:37:53.581Z,27.78
2016-08-20T06:38:53.552Z,27.84
2016-08-20T06:39:53.532Z,27.78
2016-08-20T06:40:53.502Z,27.63
2016-08-20T06:41:53.486Z,27.75
2016-08-20T06:42:53.471Z,27.92
2016-08-20T06:43:52.046Z,28.15
2016-08-20T06:44:52.023Z,28.59
2016-08-20T06:45:52.697Z,29.19
2016-08-20T06:46:52.676Z,29.68
2016-08-20T06:47:51.956Z,29.95
2016-08-20T06:48:52.638Z,30.11
2016-08-20T06:49:52.621Z,29.58
2016-08-20T06:50:53.282Z,29.21
2016-08-20T06:51:52.560Z,29.08
2016-08-20T06:52:53.239Z,29.06
2016-08-20T06:53:51.820Z,29.34
2016-08-20T06:54:52.494Z,29.28
2016-08-20T06:55:51.772Z,29.46
2016-08-20T06:56:53.159Z,29.71
2016-08-20T06:57:52.431Z,29.9
2016-08-20T06:58:53.108Z,29.7
2016-08-20T06:59:53.077Z,29.94
2016-08-20T07:00:51.675Z,30.15
2016-08-20T07:01:53.040Z,30.57
2016-08-20T07:02:53.015Z,30.57
2016-08-20T07:03:52.992Z,30.92
2016-08-20T07:04:52.276Z,31.36
2016-08-20T07:05:52.963Z,31.81
2016-08-20T07:06:52.932Z,32.25
2016-08-20T07:07:52.916Z,32.78
2016-08-20T07:08:52.891Z,33.26
2016-08-20T07:09:52.869Z,33.56
2016-08-20T07:10:52.855Z,33.68
2016-08-20T07:11:52.827Z,33.42
2016-08-20T07:12:52.822Z,33.11
2016-08-20T07:13:52.784Z,32.7
2016-08-20T07:14:52.072Z,32.4
2016-08-20T07:15:52.749Z,32.19
2016-08-20T07:16:52.726Z,32.13
2016-08-20T07:17:52.706Z,31.99
2016-08-20T07:18:52.680Z,32.04
2016-08-20T07:19:52.662Z,32.41
2016-08-20T07:20:52.655Z,33
2016-08-20T07:21:51.924Z,33.44
2016-08-20T07:22:51.902Z,33.82
2016-08-20T07:23:51.891Z,34.27
2016-08-20T07:24:52.561Z,34.8
2016-08-20T07:25:52.538Z,35.02
2016-08-20T07:26:51.824Z,35.1
2016-08-20T07:27:52.501Z,34.7
2016-08-20T07:28:52.490Z,34.1
2016-08-20T07:29:51.766Z,34.08
2016-08-20T07:30:52.453Z,33.95
2016-08-20T07:31:52.417Z,33.57
2016-08-20T07:32:52.393Z,33.14
2016-08-20T07:33:52.386Z,32.75
2016-08-20T07:34:52.359Z,32.41
2016-08-20T07:35:52.333Z,32.01
2016-08-20T07:36:52.315Z,31.44
2016-08-20T07:37:52.296Z,30.94
2016-08-20T07:38:52.269Z,30.43
2016-08-20T07:39:51.553Z,30.22
2016-08-20T07:40:51.533Z,29.82
2016-08-20T07:41:51.515Z,29.45
2016-08-20T07:42:52.187Z,29.28
2016-08-20T07:43:52.161Z,29.09
2016-08-20T07:44:52.144Z,28.78
2016-08-20T07:45:52.112Z,28.41
2016-08-20T07:46:51.394Z,28.19
2016-08-20T07:47:52.083Z,28.02
2016-08-20T07:48:52.068Z,27.82
2016-08-20T07:49:52.026Z,27.78
2016-08-20T07:50:52.004Z,27.67
2016-08-20T07:51:51.982Z,27.62
2016-08-20T07:52:51.959Z,27.54
2016-08-20T07:53:51.936Z,27.25
2016-08-20T07:54:51.909Z,27.18
2016-08-20T07:55:51.890Z,27.12
2016-08-20T07:56:51.865Z,26.92
2016-08-20T07:57:51.841Z,26.85
2016-08-20T07:58:51.816Z,26.81
2016-08-20T07:59:51.793Z,26.73
2016-08-20T08:00:50.381Z,26.72
2016-08-20T08:01:51.742Z,26.76
2016-08-20T08:02:51.720Z,26.67
2016-08-20T08:03:51.697Z,26.66
2016-08-20T08:04:51.673Z,26.62
2016-08-20T08:05:51.641Z,26.72
2016-08-20T08:06:50.232Z,26.7
2016-08-20T08:07:50.902Z,26.76
2016-08-20T08:08:51.262Z,26.84
2016-08-20T08:09:51.545Z,26.82
2016-08-20T08:10:51.528Z,26.94
2016-08-20T08:11:51.499Z,26.97
2016-08-20T08:12:51.471Z,27.02
2016-08-20T08:13:50.750Z,27.04
2016-08-20T08:14:51.430Z,27.13
2016-08-20T08:15:51.400Z,27.12
2016-08-20T08:16:51.371Z,27.13
2016-08-20T08:17:51.348Z,27.12
2016-08-20T08:18:51.321Z,27.19
2016-08-20T08:19:51.300Z,27.24
2016-08-20T08:20:51.276Z,27.25
2016-08-20T08:21:51.246Z,27.34
2016-08-20T08:22:50.528Z,27.37
2016-08-20T08:23:51.201Z,27.57
2016-08-20T08:24:51.170Z,27.62
2016-08-20T08:25:51.150Z,27.63
2016-08-20T08:26:51.124Z,27.65
2016-08-20T08:27:50.411Z,27.62
2016-08-20T08:28:51.073Z,27.69
2016-08-20T08:29:51.053Z,27.7
2016-08-20T08:30:50.328Z,27.6
2016-08-20T08:31:51.010Z,27.72
2016-08-20T08:32:50.984Z,27.6
2016-08-20T08:33:50.949Z,27.63
2016-08-20T08:34:50.235Z,27.6
2016-08-20T08:35:50.200Z,27.55
2016-08-20T08:36:50.178Z,27.51
2016-08-20T08:37:50.859Z,27.44
2016-08-20T08:38:50.820Z,27.54
2016-08-20T08:39:50.105Z,27.49
2016-08-20T08:40:50.078Z,27.62
2016-08-20T08:41:50.060Z,27.6
2016-08-20T08:42:50.026Z,27.78
2016-08-20T08:43:50.014Z,28.04
2016-08-20T08:44:50.687Z,28.36
2016-08-20T08:45:50.655Z,28.54
2016-08-20T08:46:50.630Z,28.98
2016-08-20T08:47:49.914Z,29.3
2016-08-20T08:48:50.579Z,29.58
2016-08-20T08:49:49.161Z,29.67
2016-08-20T08:50:50.531Z,29.68
2016-08-20T08:51:49.817Z,29.7
2016-08-20T08:52:50.489Z,29.6
2016-08-20T08:53:49.760Z,29.6
2016-08-20T08:54:49.738Z,29.41
2016-08-20T08:55:50.409Z,29.37
2016-08-20T08:56:50.391Z,29.24
2016-08-20T08:57:50.364Z,29.24
2016-08-20T08:58:49.642Z,29
2016-08-20T08:59:50.316Z,28.95
2016-08-20T09:00:50.290Z,28.77
2016-08-20T09:01:49.571Z,28.68
2016-08-20T09:02:50.245Z,28.41
2016-08-20T09:03:50.214Z,28.41
2016-08-20T09:04:50.191Z,28.19
2016-08-20T09:05:50.167Z,28.04
2016-08-20T09:06:49.455Z,27.92
2016-08-20T09:07:50.123Z,27.88
2016-08-20T09:08:49.407Z,27.82
2016-08-20T09:09:50.074Z,27.69
2016-08-20T09:10:49.347Z,27.69
2016-08-20T09:11:49.335Z,27.72
2016-08-20T09:12:49.298Z,27.75
2016-08-20T09:13:49.279Z,27.67
2016-08-20T09:14:49.956Z,27.75
2016-08-20T09:15:49.936Z,27.78
2016-08-20T09:16:49.903Z,27.78
2016-08-20T09:17:49.895Z,27.78
2016-08-20T09:18:49.950Z,27.87
2016-08-20T09:19:49.127Z,27.99
2016-08-20T09:20:49.806Z,27.92
2016-08-20T09:21:49.783Z,27.9
2016-08-20T09:22:49.759Z,27.85
2016-08-20T09:23:49.737Z,27.79
2016-08-20T09:24:49.013Z,27.69
2016-08-20T09:25:49.678Z,27.66
2016-08-20T09:26:49.650Z,27.69
2016-08-20T09:27:49.640Z,27.59
2016-08-20T09:28:49.610Z,27.49
2016-08-20T09:29:48.892Z,27.46
2016-08-20T09:30:49.557Z,27.32
2016-08-20T09:31:49.532Z,27.31
2016-08-20T09:32:49.502Z,27.06
2016-08-20T09:33:48.790Z,27.04
2016-08-20T09:34:48.762Z,27
2016-08-20T09:35:49.427Z,26.81
2016-08-20T09:36:48.709Z,26.65
2016-08-20T09:37:49.397Z,26.54
2016-08-20T09:38:48.661Z,26.45
2016-08-20T09:39:48.637Z,26.43
2016-08-20T09:40:48.606Z,26.26
2016-08-20T09:41:49.278Z,26.23
2016-08-20T09:42:49.256Z,26.12
2016-08-20T09:43:49.231Z,26.02
2016-08-20T09:44:49.206Z,25.98
2016-08-20T09:45:49.179Z,25.82
2016-08-20T09:46:49.155Z,25.73
2016-08-20T09:47:49.129Z,25.69
2016-08-20T09:48:49.102Z,25.61
2016-08-20T09:49:49.078Z,25.51
2016-08-20T09:50:49.048Z,25.47
2016-08-20T09:51:49.026Z,25.39
2016-08-20T09:52:49.004Z,25.25
2016-08-20T09:53:48.972Z,25.23
2016-08-20T09:54:48.946Z,25.17
2016-08-20T09:55:48.920Z,25.17
2016-08-20T09:56:48.898Z,25.09
2016-08-20T09:57:48.171Z,25.14
2016-08-20T09:58:48.845Z,25.13
2016-08-20T09:59:48.818Z,25.1
2016-08-20T10:00:48.811Z,25.17
2016-08-20T10:01:48.073Z,25.03
2016-08-20T10:02:48.754Z,25.03
2016-08-20T10:03:48.010Z,24.95
2016-08-20T10:04:47.992Z,24.91
2016-08-20T10:05:47.961Z,24.87
2016-08-20T10:06:48.630Z,24.87
2016-08-20T10:07:47.912Z,24.73
2016-08-20T10:08:47.892Z,24.81
2016-08-20T10:09:48.567Z,24.67
2016-08-20T10:10:48.539Z,24.64
2016-08-20T10:11:48.503Z,24.61
2016-08-20T10:12:48.477Z,24.6
2016-08-20T10:13:48.450Z,24.53
2016-08-20T10:14:47.729Z,24.57
2016-08-20T10:15:48.400Z,24.5
2016-08-20T10:16:48.370Z,24.5
2016-08-20T10:17:48.347Z,24.49
2016-08-20T10:18:47.621Z,24.46
2016-08-20T10:19:48.298Z,24.46
2016-08-20T10:20:48.264Z,24.49
2016-08-20T10:21:48.235Z,24.6
2016-08-20T10:22:48.213Z,24.53
2016-08-20T10:23:48.186Z,24.62
2016-08-20T10:24:48.155Z,24.58
2016-08-20T10:25:48.133Z,24.58
2016-08-20T10:26:47.413Z,24.61
2016-08-20T10:27:47.378Z,24.58
2016-08-20T10:28:47.356Z,24.65
2016-08-20T10:29:47.328Z,24.61
2016-08-20T10:30:47.301Z,24.64
2016-08-20T10:31:47.970Z,24.67
2016-08-20T10:32:47.942Z,24.58
2016-08-20T10:33:47.222Z,24.58
2016-08-20T10:34:47.203Z,24.65
2016-08-20T10:35:47.883Z,24.57
2016-08-20T10:37:47.806Z,24.58
2016-08-20T10:38:47.792Z,24.61
2016-08-20T10:39:47.765Z,24.58
2016-08-20T10:40:47.738Z,24.58
2016-08-20T10:41:47.012Z,24.5
2016-08-20T10:42:47.677Z,24.46
2016-08-20T10:43:47.656Z,24.49
2016-08-20T10:44:47.634Z,24.43
2016-08-20T10:45:46.909Z,24.42
2016-08-20T10:46:46.179Z,24.35
2016-08-20T10:47:47.550Z,24.34
2016-08-20T10:48:47.517Z,24.3
2016-08-20T10:49:46.796Z,24.32
2016-08-20T10:50:47.466Z,24.25
2016-08-20T10:51:47.439Z,24.27
2016-08-20T10:52:47.415Z,24.21
2016-08-20T10:53:47.387Z,24.24
2016-08-20T10:54:47.351Z,24.24
2016-08-20T10:55:47.339Z,24.16
2016-08-20T10:56:47.301Z,24.12
2016-08-20T10:57:47.275Z,24.1
2016-08-20T10:58:47.255Z,24.13
2016-08-20T10:59:46.524Z,24.16
2016-08-20T11:00:47.195Z,24.22
2016-08-20T11:01:47.170Z,24.2
2016-08-20T11:02:46.447Z,24.25
2016-08-20T11:03:47.125Z,24.28
2016-08-20T11:04:45.693Z,24.2
2016-08-20T11:05:46.360Z,24.31
2016-08-20T11:06:47.035Z,24.27
2016-08-20T11:07:46.334Z,24.27
2016-08-20T11:08:46.281Z,24.34
2016-08-20T11:09:46.259Z,24.4
2016-08-20T11:10:46.233Z,24.46
2016-08-20T11:11:46.900Z,24.5
2016-08-20T11:12:46.177Z,24.46
2016-08-20T11:13:46.854Z,24.49
2016-08-20T11:14:46.122Z,24.55
2016-08-20T11:15:46.793Z,24.58
2016-08-20T11:16:46.070Z,24.64
2016-08-20T11:17:45.347Z,24.69
2016-08-20T11:18:46.714Z,24.64
2016-08-20T11:19:46.685Z,24.61
2016-08-20T11:20:45.962Z,24.69
2016-08-20T11:21:46.635Z,24.62
2016-08-20T11:22:45.908Z,24.62
2016-08-20T11:23:45.186Z,24.57
2016-08-20T11:24:45.863Z,24.47
2016-08-20T11:25:46.546Z,24.5
2016-08-20T11:26:46.499Z,24.47
2016-08-20T11:27:46.484Z,24.43
2016-08-20T11:28:46.445Z,24.39
2016-08-20T11:29:45.029Z,24.39
2016-08-20T11:30:46.389Z,24.45
2016-08-20T11:31:46.361Z,24.34
2016-08-20T11:32:44.951Z,24.31
2016-08-20T11:33:45.621Z,24.31
2016-08-20T11:34:46.286Z,24.31
2016-08-20T11:35:46.260Z,24.28
2016-08-20T11:36:46.227Z,24.18
2016-08-20T11:37:46.207Z,24.18
2016-08-20T11:38:45.493Z,24.2
2016-08-20T11:39:46.163Z,24.22
2016-08-20T11:40:46.121Z,24.21
2016-08-20T11:41:44.705Z,24.18
2016-08-20T11:42:45.373Z,24.1
2016-08-20T11:43:44.651Z,24.16
2016-08-20T11:44:45.333Z,24.06
2016-08-20T11:45:45.990Z,24.03
2016-08-20T11:46:45.267Z,24
2016-08-20T11:47:45.935Z,24.06
2016-08-20T11:48:45.903Z,23.98
2016-08-20T11:49:45.880Z,24
2016-08-20T11:50:45.859Z,23.88
2016-08-20T11:51:45.830Z,23.88
2016-08-20T11:52:45.807Z,23.79
2016-08-20T11:53:45.085Z,23.8
2016-08-20T11:54:45.748Z,23.8
2016-08-20T11:55:45.023Z,23.78
2016-08-20T11:56:44.998Z,23.7
2016-08-20T11:57:44.971Z,23.7
2016-08-20T11:58:45.643Z,23.69
2016-08-20T11:59:45.625Z,23.66
2016-08-20T12:00:45.582Z,23.68
2016-08-20T12:01:45.552Z,23.68
2016-08-20T12:02:45.528Z,23.73
2016-08-20T12:03:45.501Z,23.68
2016-08-20T12:04:44.774Z,23.69
2016-08-20T12:05:45.463Z,23.73
2016-08-20T12:06:44.720Z,23.69
2016-08-20T12:07:44.699Z,23.72
2016-08-20T12:08:43.971Z,23.75
2016-08-20T12:09:45.342Z,23.75
2016-08-20T12:10:45.316Z,23.78
2016-08-20T12:11:44.589Z,23.78
2016-08-20T12:12:45.259Z,23.73
2016-08-20T12:13:45.229Z,23.83
2016-08-20T12:14:44.509Z,23.72
2016-08-20T12:15:44.477Z,23.8
2016-08-20T12:16:45.150Z,23.83
2016-08-20T12:17:43.729Z,23.69
2016-08-20T12:18:45.098Z,23.73
2016-08-20T12:19:45.070Z,23.79
2016-08-20T12:20:45.046Z,23.72
2016-08-20T12:21:45.015Z,23.78
2016-08-20T12:22:44.981Z,23.78
2016-08-20T12:23:44.962Z,23.9
2016-08-20T12:24:44.930Z,23.87
2016-08-20T12:25:43.507Z,23.91
2016-08-20T12:26:44.878Z,24.02
2016-08-20T12:27:44.850Z,24
2016-08-20T12:28:44.827Z,24.03
2016-08-20T12:29:44.104Z,23.98
2016-08-20T12:30:44.074Z,24.02
2016-08-20T12:31:44.742Z,24.06
2016-08-20T12:32:43.324Z,23.98
2016-08-20T12:33:43.992Z,24.09
2016-08-20T12:34:44.660Z,23.94
2016-08-20T12:35:43.938Z,23.97
2016-08-20T12:36:44.610Z,24.06
2016-08-20T12:37:44.592Z,24
2016-08-20T12:38:44.552Z,24.1
2016-08-20T12:39:44.526Z,24.03
2016-08-20T12:40:44.508Z,24.05
2016-08-20T12:41:43.787Z,24.02
2016-08-20T12:42:43.748Z,23.95
2016-08-20T12:43:44.417Z,23.95
2016-08-20T12:44:43.694Z,24.02
2016-08-20T12:45:43.663Z,23.95
2016-08-20T12:46:44.337Z,23.85
2016-08-20T12:47:42.915Z,23.88
2016-08-20T12:48:44.281Z,23.9
2016-08-20T12:49:44.252Z,23.87
2016-08-20T12:50:44.405Z,23.78
2016-08-20T12:51:43.506Z,23.91
2016-08-20T12:52:44.175Z,23.85
2016-08-20T12:53:44.150Z,23.8
2016-08-20T12:54:43.424Z,23.91
2016-08-20T12:55:43.402Z,23.78
2016-08-20T12:56:44.068Z,23.75